sensor_id;sensor_type;location;lat;lon;timestamp;P1;durP1;ratioP1;P2;durP2;ratioP2
32242;SDS011;18731;42.830;24.390;2023-02-18T04:01:18;21.25;;;10.57;;
32242;SDS011;18731;42.830;24.390;2023-02-18T04:03:44;26.70;;;11.98;;
32242;SDS011;18731;42.830;24.390;2023-02-18T04:06:10;22.75;;;11.57;;
32242;SDS011;18731;42.830;24.390;2023-02-18T04:08:36;25.30;;;10.90;;
32242;SDS011;18731;42.830;24.390;2023-02-18T04:11:02;22.42;;;10.15;;
32242;SDS011;18731;42.830;24.390;2023-02-18T04:13:29;24.50;;;11.02;;
32242;SDS011;18731;42.830;24.390;2023-02-18T04:15:55;24.85;;;11.52;;
32242;SDS011;18731;42.830;24.390;2023-02-18T04:18:21;56.83;;;16.63;;
32242;SDS011;18731;42.830;24.390;2023-02-18T04:20:47;148.45;;;36.85;;
32242;SDS011;18731;42.830;24.390;2023-02-18T04:23:13;34.00;;;12.77;;
32242;SDS011;18731;42.830;24.390;2023-02-18T04:25:38;27.95;;;10.55;;
32242;SDS011;18731;42.830;24.390;2023-02-18T04:28:04;23.90;;;11.52;;
32242;SDS011;18731;42.830;24.390;2023-02-18T04:30:31;22.83;;;11.40;;
32242;SDS011;18731;42.830;24.390;2023-02-18T04:32:56;30.50;;;13.98;;
32242;SDS011;18731;42.830;24.390;2023-02-18T04:35:22;28.25;;;13.02;;
32242;SDS011;18731;42.830;24.390;2023-02-18T04:37:48;42.53;;;20.67;;
32242;SDS011;18731;42.830;24.390;2023-02-18T04:40:13;34.28;;;15.45;;
32242;SDS011;18731;42.830;24.390;2023-02-18T04:42:39;31.48;;;13.60;;
32242;SDS011;18731;42.830;24.390;2023-02-18T04:45:05;23.60;;;11.10;;
32242;SDS011;18731;42.830;24.390;2023-02-18T04:47:31;24.13;;;11.02;;
32242;SDS011;18731;42.830;24.390;2023-02-18T04:49:56;28.38;;;12.32;;
32242;SDS011;18731;42.830;24.390;2023-02-18T04:52:22;29.50;;;12.45;;
32242;SDS011;18731;42.830;24.390;2023-02-18T04:54:48;22.20;;;10.77;;
32242;SDS011;18731;42.830;24.390;2023-02-18T04:57:13;25.35;;;12.18;;
32242;SDS011;18731;42.830;24.390;2023-02-18T04:59:39;23.92;;;11.88;;
32242;SDS011;18731;42.830;24.390;2023-02-18T05:02:05;24.15;;;12.25;;
32242;SDS011;18731;42.830;24.390;2023-02-18T05:04:31;27.73;;;13.32;;
32242;SDS011;18731;42.830;24.390;2023-02-18T05:06:56;27.65;;;11.68;;
32242;SDS011;18731;42.830;24.390;2023-02-18T05:09:22;25.52;;;12.50;;
32242;SDS011;18731;42.830;24.390;2023-02-18T05:11:48;19.75;;;10.40;;
32242;SDS011;18731;42.830;24.390;2023-02-18T05:14:13;24.63;;;11.60;;
32242;SDS011;18731;42.830;24.390;2023-02-18T05:16:39;33.28;;;17.02;;
32242;SDS011;18731;42.830;24.390;2023-02-18T05:19:05;25.83;;;13.80;;
32242;SDS011;18731;42.830;24.390;2023-02-18T05:21:31;23.05;;;10.82;;
32242;SDS011;18731;42.830;24.390;2023-02-18T05:23:57;34.20;;;13.68;;
32242;SDS011;18731;42.830;24.390;2023-02-18T05:26:22;29.27;;;15.65;;
32242;SDS011;18731;42.830;24.390;2023-02-18T05:28:48;29.55;;;16.20;;
32242;SDS011;18731;42.830;24.390;2023-02-18T05:31:14;26.65;;;12.43;;
32242;SDS011;18731;42.830;24.390;2023-02-18T05:33:40;18.60;;;10.02;;
32242;SDS011;18731;42.830;24.390;2023-02-18T05:36:05;42.50;;;21.13;;
32242;SDS011;18731;42.830;24.390;2023-02-18T05:38:31;34.25;;;16.10;;
32242;SDS011;18731;42.830;24.390;2023-02-18T05:40:57;26.75;;;13.60;;
32242;SDS011;18731;42.830;24.390;2023-02-18T05:43:23;40.55;;;21.05;;
32242;SDS011;18731;42.830;24.390;2023-02-18T05:45:48;45.88;;;22.77;;
32242;SDS011;18731;42.830;24.390;2023-02-18T05:48:14;62.80;;;31.17;;
32242;SDS011;18731;42.830;24.390;2023-02-18T05:50:39;85.80;;;40.70;;
32242;SDS011;18731;42.830;24.390;2023-02-18T05:53:05;70.22;;;34.05;;
32242;SDS011;18731;42.830;24.390;2023-02-18T05:55:31;68.95;;;29.98;;
32242;SDS011;18731;42.830;24.390;2023-02-18T05:58:01;43.35;;;22.67;;
32242;SDS011;18731;42.830;24.390;2023-02-18T06:00:27;38.97;;;20.70;;
32242;SDS011;18731;42.830;24.390;2023-02-18T06:02:54;41.70;;;22.00;;
32242;SDS011;18731;42.830;24.390;2023-02-18T06:05:19;22.08;;;11.73;;
32242;SDS011;18731;42.830;24.390;2023-02-18T06:07:45;33.85;;;18.20;;
32242;SDS011;18731;42.830;24.390;2023-02-18T06:10:11;34.08;;;16.58;;
32242;SDS011;18731;42.830;24.390;2023-02-18T06:12:36;39.55;;;17.65;;
32242;SDS011;18731;42.830;24.390;2023-02-18T06:15:02;37.65;;;20.45;;
32242;SDS011;18731;42.830;24.390;2023-02-18T06:17:28;36.40;;;17.60;;
32242;SDS011;18731;42.830;24.390;2023-02-18T06:19:53;31.77;;;15.18;;
32242;SDS011;18731;42.830;24.390;2023-02-18T06:22:19;60.90;;;29.50;;
32242;SDS011;18731;42.830;24.390;2023-02-18T06:24:45;62.40;;;27.95;;
32242;SDS011;18731;42.830;24.390;2023-02-18T06:27:10;43.05;;;23.33;;
32242;SDS011;18731;42.830;24.390;2023-02-18T06:29:36;41.50;;;20.67;;
32242;SDS011;18731;42.830;24.390;2023-02-18T06:32:02;51.80;;;24.88;;
32242;SDS011;18731;42.830;24.390;2023-02-18T06:34:27;63.15;;;30.05;;
32242;SDS011;18731;42.830;24.390;2023-02-18T06:36:53;52.03;;;23.30;;
32242;SDS011;18731;42.830;24.390;2023-02-18T06:39:18;36.72;;;18.38;;
32242;SDS011;18731;42.830;24.390;2023-02-18T06:41:44;22.63;;;14.43;;
32242;SDS011;18731;42.830;24.390;2023-02-18T06:44:10;26.90;;;11.95;;
32242;SDS011;18731;42.830;24.390;2023-02-18T06:46:36;20.92;;;11.80;;
32242;SDS011;18731;42.830;24.390;2023-02-18T06:49:02;22.40;;;9.15;;
32242;SDS011;18731;42.830;24.390;2023-02-18T06:51:27;15.35;;;8.30;;
32242;SDS011;18731;42.830;24.390;2023-02-18T06:53:53;13.68;;;7.18;;
32242;SDS011;18731;42.830;24.390;2023-02-18T06:56:18;17.25;;;9.13;;
32242;SDS011;18731;42.830;24.390;2023-02-18T06:58:44;17.60;;;9.65;;
32242;SDS011;18731;42.830;24.390;2023-02-18T07:01:10;24.13;;;10.82;;
32242;SDS011;18731;42.830;24.390;2023-02-18T07:03:35;20.17;;;10.77;;
32242;SDS011;18731;42.830;24.390;2023-02-18T07:06:01;16.05;;;7.75;;
32242;SDS011;18731;42.830;24.390;2023-02-18T07:08:26;24.15;;;11.55;;
32242;SDS011;18731;42.830;24.390;2023-02-18T07:10:52;17.08;;;9.35;;
32242;SDS011;18731;42.830;24.390;2023-02-18T07:13:17;22.80;;;12.05;;
32242;SDS011;18731;42.830;24.390;2023-02-18T07:15:43;28.02;;;13.40;;
32242;SDS011;18731;42.830;24.390;2023-02-18T07:18:09;33.85;;;16.05;;
32242;SDS011;18731;42.830;24.390;2023-02-18T07:20:34;48.30;;;19.17;;
32242;SDS011;18731;42.830;24.390;2023-02-18T07:23:00;33.75;;;15.88;;
32242;SDS011;18731;42.830;24.390;2023-02-18T07:25:25;60.45;;;27.08;;
32242;SDS011;18731;42.830;24.390;2023-02-18T07:27:51;34.75;;;18.02;;
32242;SDS011;18731;42.830;24.390;2023-02-18T07:30:17;37.85;;;21.55;;
32242;SDS011;18731;42.830;24.390;2023-02-18T07:32:44;35.75;;;19.15;;
32242;SDS011;18731;42.830;24.390;2023-02-18T07:35:10;28.95;;;16.05;;
32242;SDS011;18731;42.830;24.390;2023-02-18T07:37:38;28.20;;;15.45;;
32242;SDS011;18731;42.830;24.390;2023-02-18T07:40:04;18.40;;;9.05;;
32242;SDS011;18731;42.830;24.390;2023-02-18T07:42:30;19.10;;;9.82;;
32242;SDS011;18731;42.830;24.390;2023-02-18T07:44:56;16.35;;;8.30;;
32242;SDS011;18731;42.830;24.390;2023-02-18T07:47:21;18.23;;;9.75;;
32242;SDS011;18731;42.830;24.390;2023-02-18T07:49:47;50.42;;;23.27;;
32242;SDS011;18731;42.830;24.390;2023-02-18T07:52:13;23.63;;;11.57;;
32242;SDS011;18731;42.830;24.390;2023-02-18T07:54:40;36.30;;;16.63;;
32242;SDS011;18731;42.830;24.390;2023-02-18T07:57:05;23.80;;;13.43;;
32242;SDS011;18731;42.830;24.390;2023-02-18T07:59:31;20.08;;;11.88;;
32242;SDS011;18731;42.830;24.390;2023-02-18T08:01:57;30.05;;;16.77;;
32242;SDS011;18731;42.830;24.390;2023-02-18T08:04:22;32.42;;;17.35;;
32242;SDS011;18731;42.830;24.390;2023-02-18T08:06:48;26.63;;;15.90;;
32242;SDS011;18731;42.830;24.390;2023-02-18T08:09:15;27.48;;;15.40;;
32242;SDS011;18731;42.830;24.390;2023-02-18T08:11:41;19.65;;;11.55;;
32242;SDS011;18731;42.830;24.390;2023-02-18T08:14:08;11.38;;;6.60;;
32242;SDS011;18731;42.830;24.390;2023-02-18T08:16:34;25.23;;;12.02;;
32242;SDS011;18731;42.830;24.390;2023-02-18T08:19:00;13.70;;;7.70;;
32242;SDS011;18731;42.830;24.390;2023-02-18T08:21:27;12.95;;;6.93;;
32242;SDS011;18731;42.830;24.390;2023-02-18T08:23:53;18.48;;;10.38;;
32242;SDS011;18731;42.830;24.390;2023-02-18T08:26:19;26.65;;;13.65;;
32242;SDS011;18731;42.830;24.390;2023-02-18T08:28:46;19.92;;;10.48;;
32242;SDS011;18731;42.830;24.390;2023-02-18T08:31:16;20.90;;;10.93;;
32242;SDS011;18731;42.830;24.390;2023-02-18T08:33:50;18.15;;;9.88;;
32242;SDS011;18731;42.830;24.390;2023-02-18T08:36:17;19.48;;;10.15;;
32242;SDS011;18731;42.830;24.390;2023-02-18T08:38:43;17.08;;;9.77;;
32242;SDS011;18731;42.830;24.390;2023-02-18T08:41:09;20.50;;;11.50;;
32242;SDS011;18731;42.830;24.390;2023-02-18T08:43:35;27.55;;;14.57;;
32242;SDS011;18731;42.830;24.390;2023-02-18T08:46:01;25.63;;;12.95;;
32242;SDS011;18731;42.830;24.390;2023-02-18T08:48:27;19.42;;;11.05;;
32242;SDS011;18731;42.830;24.390;2023-02-18T08:50:53;16.38;;;9.77;;
32242;SDS011;18731;42.830;24.390;2023-02-18T08:53:19;20.70;;;10.55;;
32242;SDS011;18731;42.830;24.390;2023-02-18T08:55:45;21.48;;;10.43;;
32242;SDS011;18731;42.830;24.390;2023-02-18T08:58:11;19.67;;;9.93;;
32242;SDS011;18731;42.830;24.390;2023-02-18T09:00:37;16.65;;;8.60;;
32242;SDS011;18731;42.830;24.390;2023-02-18T09:03:04;10.93;;;5.93;;
32242;SDS011;18731;42.830;24.390;2023-02-18T09:05:30;16.90;;;7.70;;
32242;SDS011;18731;42.830;24.390;2023-02-18T09:07:56;25.83;;;11.80;;
32242;SDS011;18731;42.830;24.390;2023-02-18T09:10:21;23.70;;;14.50;;
32242;SDS011;18731;42.830;24.390;2023-02-18T09:12:53;18.25;;;10.52;;
32242;SDS011;18731;42.830;24.390;2023-02-18T09:15:18;12.13;;;6.80;;
32242;SDS011;18731;42.830;24.390;2023-02-18T09:17:44;11.13;;;5.75;;
32242;SDS011;18731;42.830;24.390;2023-02-18T09:20:09;8.80;;;5.30;;
32242;SDS011;18731;42.830;24.390;2023-02-18T09:22:35;14.75;;;9.15;;
32242;SDS011;18731;42.830;24.390;2023-02-18T09:25:01;14.60;;;7.82;;
32242;SDS011;18731;42.830;24.390;2023-02-18T09:27:28;11.30;;;5.35;;
32242;SDS011;18731;42.830;24.390;2023-02-18T09:29:53;10.73;;;6.07;;
32242;SDS011;18731;42.830;24.390;2023-02-18T09:32:19;9.43;;;4.03;;
32242;SDS011;18731;42.830;24.390;2023-02-18T09:34:45;5.28;;;3.15;;
32242;SDS011;18731;42.830;24.390;2023-02-18T09:37:10;7.38;;;3.80;;
32242;SDS011;18731;42.830;24.390;2023-02-18T09:39:36;6.05;;;3.35;;
32242;SDS011;18731;42.830;24.390;2023-02-18T09:42:03;6.47;;;2.90;;
32242;SDS011;18731;42.830;24.390;2023-02-18T09:44:36;5.50;;;2.90;;
32242;SDS011;18731;42.830;24.390;2023-02-18T09:47:12;6.85;;;3.92;;
32242;SDS011;18731;42.830;24.390;2023-02-18T09:49:45;8.07;;;4.75;;
32242;SDS011;18731;42.830;24.390;2023-02-18T09:52:16;10.35;;;5.43;;
32242;SDS011;18731;42.830;24.390;2023-02-18T09:54:45;6.75;;;3.83;;
32242;SDS011;18731;42.830;24.390;2023-02-18T09:57:23;8.38;;;3.33;;
32242;SDS011;18731;42.830;24.390;2023-02-18T10:00:00;5.43;;;3.33;;
32242;SDS011;18731;42.830;24.390;2023-02-18T10:02:35;7.60;;;4.53;;
32242;SDS011;18731;42.830;24.390;2023-02-18T10:05:03;7.88;;;3.33;;
32242;SDS011;18731;42.830;24.390;2023-02-18T10:07:30;5.78;;;2.75;;
32242;SDS011;18731;42.830;24.390;2023-02-18T10:09:58;5.47;;;2.65;;
32242;SDS011;18731;42.830;24.390;2023-02-18T10:12:30;4.63;;;2.40;;
32242;SDS011;18731;42.830;24.390;2023-02-18T10:15:00;8.18;;;2.60;;
32242;SDS011;18731;42.830;24.390;2023-02-18T10:17:27;4.35;;;2.22;;
32242;SDS011;18731;42.830;24.390;2023-02-18T10:19:57;5.13;;;2.40;;
32242;SDS011;18731;42.830;24.390;2023-02-18T10:22:24;3.08;;;2.58;;
32242;SDS011;18731;42.830;24.390;2023-02-18T10:24:56;5.03;;;2.42;;
32242;SDS011;18731;42.830;24.390;2023-02-18T10:27:25;8.07;;;2.50;;
32242;SDS011;18731;42.830;24.390;2023-02-18T10:29:54;5.45;;;2.30;;
32242;SDS011;18731;42.830;24.390;2023-02-18T10:32:37;5.90;;;2.50;;
32242;SDS011;18731;42.830;24.390;2023-02-18T10:41:04;6.97;;;3.40;;
32242;SDS011;18731;42.830;24.390;2023-02-18T10:46:51;6.03;;;2.70;;
32242;SDS011;18731;42.830;24.390;2023-02-18T10:52:08;8.90;;;3.10;;
32242;SDS011;18731;42.830;24.390;2023-02-18T10:54:57;6.07;;;3.45;;
32242;SDS011;18731;42.830;24.390;2023-02-18T10:57:30;8.80;;;3.75;;
32242;SDS011;18731;42.830;24.390;2023-02-18T10:59:59;8.82;;;3.10;;
32242;SDS011;18731;42.830;24.390;2023-02-18T11:02:37;4.40;;;2.90;;
32242;SDS011;18731;42.830;24.390;2023-02-18T11:05:22;6.97;;;3.05;;
32242;SDS011;18731;42.830;24.390;2023-02-18T11:07:50;9.00;;;4.47;;
32242;SDS011;18731;42.830;24.390;2023-02-18T11:10:21;11.57;;;4.28;;
32242;SDS011;18731;42.830;24.390;2023-02-18T11:12:59;6.78;;;4.40;;
32242;SDS011;18731;42.830;24.390;2023-02-18T11:15:27;8.07;;;3.88;;
32242;SDS011;18731;42.830;24.390;2023-02-18T11:17:55;7.03;;;3.50;;
32242;SDS011;18731;42.830;24.390;2023-02-18T11:25:35;5.20;;;3.20;;
32242;SDS011;18731;42.830;24.390;2023-02-18T11:30:38;4.05;;;2.70;;
32242;SDS011;18731;42.830;24.390;2023-02-18T11:33:08;5.95;;;2.90;;
32242;SDS011;18731;42.830;24.390;2023-02-18T11:35:40;4.47;;;2.35;;
32242;SDS011;18731;42.830;24.390;2023-02-18T11:38:56;3.53;;;2.40;;
32242;SDS011;18731;42.830;24.390;2023-02-18T11:41:09;2.97;;;2.17;;
32242;SDS011;18731;42.830;24.390;2023-02-18T11:43:40;4.20;;;2.20;;
32242;SDS011;18731;42.830;24.390;2023-02-18T11:46:11;3.70;;;2.20;;
32242;SDS011;18731;42.830;24.390;2023-02-18T11:48:41;8.02;;;2.58;;
32242;SDS011;18731;42.830;24.390;2023-02-18T11:51:15;3.63;;;2.38;;
32242;SDS011;18731;42.830;24.390;2023-02-18T11:53:51;7.00;;;2.58;;
32242;SDS011;18731;42.830;24.390;2023-02-18T11:56:20;5.20;;;3.03;;
32242;SDS011;18731;42.830;24.390;2023-02-18T11:58:46;3.80;;;2.47;;
32242;SDS011;18731;42.830;24.390;2023-02-18T12:01:26;3.47;;;2.30;;
32242;SDS011;18731;42.830;24.390;2023-02-18T12:04:10;9.05;;;3.10;;
32242;SDS011;18731;42.830;24.390;2023-02-18T12:09:42;7.90;;;2.55;;
32242;SDS011;18731;42.830;24.390;2023-02-18T12:12:13;5.22;;;2.90;;
32242;SDS011;18731;42.830;24.390;2023-02-18T12:14:43;6.03;;;2.60;;
32242;SDS011;18731;42.830;24.390;2023-02-18T12:28:16;6.35;;;3.00;;
32242;SDS011;18731;42.830;24.390;2023-02-18T12:34:10;5.55;;;2.40;;
32242;SDS011;18731;42.830;24.390;2023-02-18T12:39:57;10.23;;;6.45;;
32242;SDS011;18731;42.830;24.390;2023-02-18T12:42:55;15.07;;;7.25;;
32242;SDS011;18731;42.830;24.390;2023-02-18T12:48:43;15.95;;;9.27;;
32242;SDS011;18731;42.830;24.390;2023-02-18T12:54:18;7.35;;;3.72;;
32242;SDS011;18731;42.830;24.390;2023-02-18T13:13:28;6.07;;;2.30;;
32242;SDS011;18731;42.830;24.390;2023-02-18T13:16:00;5.78;;;3.72;;
32242;SDS011;18731;42.830;24.390;2023-02-18T13:18:40;6.15;;;2.70;;
32242;SDS011;18731;42.830;24.390;2023-02-18T13:21:11;7.03;;;3.80;;
32242;SDS011;18731;42.830;24.390;2023-02-18T13:23:42;6.43;;;3.22;;
32242;SDS011;18731;42.830;24.390;2023-02-18T13:26:16;3.97;;;2.40;;
32242;SDS011;18731;42.830;24.390;2023-02-18T13:28:57;3.88;;;2.65;;
32242;SDS011;18731;42.830;24.390;2023-02-18T13:37:25;6.20;;;3.92;;
32242;SDS011;18731;42.830;24.390;2023-02-18T13:39:55;3.40;;;2.20;;
32242;SDS011;18731;42.830;24.390;2023-02-18T13:42:24;30.65;;;17.58;;
32242;SDS011;18731;42.830;24.390;2023-02-18T13:45:05;5.45;;;3.30;;
32242;SDS011;18731;42.830;24.390;2023-02-18T13:47:47;7.15;;;2.97;;
32242;SDS011;18731;42.830;24.390;2023-02-18T13:52:56;15.48;;;7.70;;
32242;SDS011;18731;42.830;24.390;2023-02-18T13:55:45;20.58;;;12.25;;
32242;SDS011;18731;42.830;24.390;2023-02-18T13:58:19;17.77;;;9.88;;
32242;SDS011;18731;42.830;24.390;2023-02-18T14:01:35;24.67;;;13.30;;
32242;SDS011;18731;42.830;24.390;2023-02-18T14:06:13;31.58;;;14.68;;
32242;SDS011;18731;42.830;24.390;2023-02-18T14:08:40;42.65;;;19.70;;
32242;SDS011;18731;42.830;24.390;2023-02-18T14:16:20;14.65;;;8.02;;
32242;SDS011;18731;42.830;24.390;2023-02-18T14:36:08;17.98;;;8.70;;
32242;SDS011;18731;42.830;24.390;2023-02-18T14:49:51;15.48;;;9.45;;
32242;SDS011;18731;42.830;24.390;2023-02-18T14:54:57;26.92;;;14.35;;
32242;SDS011;18731;42.830;24.390;2023-02-18T15:00:22;89.50;;;41.88;;
32242;SDS011;18731;42.830;24.390;2023-02-18T15:02:50;23.23;;;10.75;;
32242;SDS011;18731;42.830;24.390;2023-02-18T15:05:21;38.80;;;20.70;;
32242;SDS011;18731;42.830;24.390;2023-02-18T15:10:24;30.75;;;18.63;;
32242;SDS011;18731;42.830;24.390;2023-02-18T15:12:56;33.37;;;15.87;;
32242;SDS011;18731;42.830;24.390;2023-02-18T15:15:22;31.45;;;14.10;;
32242;SDS011;18731;42.830;24.390;2023-02-18T15:17:49;34.50;;;21.05;;
32242;SDS011;18731;42.830;24.390;2023-02-18T15:20:15;17.92;;;9.10;;
32242;SDS011;18731;42.830;24.390;2023-02-18T15:22:41;22.38;;;10.85;;
32242;SDS011;18731;42.830;24.390;2023-02-18T15:25:09;52.00;;;24.77;;
32242;SDS011;18731;42.830;24.390;2023-02-18T15:27:38;35.13;;;15.95;;
32242;SDS011;18731;42.830;24.390;2023-02-18T15:32:37;31.95;;;12.63;;
32242;SDS011;18731;42.830;24.390;2023-02-18T15:35:11;51.33;;;19.40;;
32242;SDS011;18731;42.830;24.390;2023-02-18T15:37:42;41.58;;;17.67;;
32242;SDS011;18731;42.830;24.390;2023-02-18T15:40:18;92.63;;;36.65;;
32242;SDS011;18731;42.830;24.390;2023-02-18T15:42:47;49.75;;;19.42;;
32242;SDS011;18731;42.830;24.390;2023-02-18T15:45:22;59.42;;;23.23;;
32242;SDS011;18731;42.830;24.390;2023-02-18T15:47:55;84.75;;;32.78;;
32242;SDS011;18731;42.830;24.390;2023-02-18T15:52:47;51.13;;;21.92;;
32242;SDS011;18731;42.830;24.390;2023-02-18T15:55:20;51.95;;;22.52;;
32242;SDS011;18731;42.830;24.390;2023-02-18T15:58:04;39.95;;;17.63;;
32242;SDS011;18731;42.830;24.390;2023-02-18T16:00:40;57.58;;;25.23;;
32242;SDS011;18731;42.830;24.390;2023-02-18T16:03:20;30.25;;;12.77;;
32242;SDS011;18731;42.830;24.390;2023-02-18T16:05:48;57.67;;;27.23;;
32242;SDS011;18731;42.830;24.390;2023-02-18T16:08:25;36.78;;;18.38;;
32242;SDS011;18731;42.830;24.390;2023-02-18T16:11:02;30.63;;;14.27;;
32242;SDS011;18731;42.830;24.390;2023-02-18T16:13:34;19.42;;;8.50;;
32242;SDS011;18731;42.830;24.390;2023-02-18T16:16:01;28.35;;;10.80;;
32242;SDS011;18731;42.830;24.390;2023-02-18T16:18:28;35.53;;;17.83;;
32242;SDS011;18731;42.830;24.390;2023-02-18T16:23:55;26.25;;;12.82;;
32242;SDS011;18731;42.830;24.390;2023-02-18T16:29:11;20.85;;;10.68;;
32242;SDS011;18731;42.830;24.390;2023-02-18T16:31:45;16.77;;;6.85;;
32242;SDS011;18731;42.830;24.390;2023-02-18T16:34:11;22.27;;;11.05;;
32242;SDS011;18731;42.830;24.390;2023-02-18T16:36:36;24.17;;;10.38;;
32242;SDS011;18731;42.830;24.390;2023-02-18T16:39:22;47.22;;;19.48;;
32242;SDS011;18731;42.830;24.390;2023-02-18T16:41:48;12.15;;;5.32;;
32242;SDS011;18731;42.830;24.390;2023-02-18T16:44:14;26.10;;;10.50;;
32242;SDS011;18731;42.830;24.390;2023-02-18T16:46:39;26.65;;;12.98;;
32242;SDS011;18731;42.830;24.390;2023-02-18T16:49:07;24.83;;;12.07;;
32242;SDS011;18731;42.830;24.390;2023-02-18T16:51:37;60.50;;;22.30;;
32242;SDS011;18731;42.830;24.390;2023-02-18T16:54:03;23.17;;;9.65;;
32242;SDS011;18731;42.830;24.390;2023-02-18T16:56:30;45.15;;;16.45;;
32242;SDS011;18731;42.830;24.390;2023-02-18T16:58:57;49.70;;;15.30;;
32242;SDS011;18731;42.830;24.390;2023-02-18T17:01:24;44.30;;;14.05;;
32242;SDS011;18731;42.830;24.390;2023-02-18T17:03:57;36.05;;;12.52;;
32242;SDS011;18731;42.830;24.390;2023-02-18T17:06:25;13.55;;;5.78;;
32242;SDS011;18731;42.830;24.390;2023-02-18T17:08:51;24.55;;;9.93;;
32242;SDS011;18731;42.830;24.390;2023-02-18T17:11:21;23.40;;;9.73;;
32242;SDS011;18731;42.830;24.390;2023-02-18T17:13:50;53.08;;;20.98;;
32242;SDS011;18731;42.830;24.390;2023-02-18T17:16:17;42.25;;;15.65;;
32242;SDS011;18731;42.830;24.390;2023-02-18T17:18:44;61.15;;;21.83;;
32242;SDS011;18731;42.830;24.390;2023-02-18T17:21:11;82.60;;;29.05;;
32242;SDS011;18731;42.830;24.390;2023-02-18T17:23:42;88.63;;;30.75;;
32242;SDS011;18731;42.830;24.390;2023-02-18T17:26:19;101.55;;;35.38;;
32242;SDS011;18731;42.830;24.390;2023-02-18T17:28:49;123.82;;;41.67;;
32242;SDS011;18731;42.830;24.390;2023-02-18T17:31:16;187.20;;;53.22;;
32242;SDS011;18731;42.830;24.390;2023-02-18T17:33:47;113.95;;;33.95;;
32242;SDS011;18731;42.830;24.390;2023-02-18T17:36:12;39.95;;;12.60;;
32242;SDS011;18731;42.830;24.390;2023-02-18T17:38:38;78.78;;;27.33;;
32242;SDS011;18731;42.830;24.390;2023-02-18T17:41:05;23.63;;;10.05;;
32242;SDS011;18731;42.830;24.390;2023-02-18T17:43:31;48.70;;;22.27;;
32242;SDS011;18731;42.830;24.390;2023-02-18T17:45:57;40.72;;;18.95;;
32242;SDS011;18731;42.830;24.390;2023-02-18T17:48:24;92.38;;;40.42;;
32242;SDS011;18731;42.830;24.390;2023-02-18T17:50:50;43.33;;;20.27;;
32242;SDS011;18731;42.830;24.390;2023-02-18T17:53:16;20.95;;;8.07;;
32242;SDS011;18731;42.830;24.390;2023-02-18T17:55:43;29.38;;;14.50;;
32242;SDS011;18731;42.830;24.390;2023-02-18T17:58:10;54.35;;;28.02;;
32242;SDS011;18731;42.830;24.390;2023-02-18T18:00:38;38.40;;;18.48;;
32242;SDS011;18731;42.830;24.390;2023-02-18T18:03:14;23.88;;;10.50;;
32242;SDS011;18731;42.830;24.390;2023-02-18T18:05:42;38.10;;;17.50;;
32242;SDS011;18731;42.830;24.390;2023-02-18T18:08:09;54.90;;;26.63;;
32242;SDS011;18731;42.830;24.390;2023-02-18T18:10:35;26.05;;;11.65;;
32242;SDS011;18731;42.830;24.390;2023-02-18T18:13:05;37.05;;;16.50;;
32242;SDS011;18731;42.830;24.390;2023-02-18T18:15:39;40.38;;;17.55;;
32242;SDS011;18731;42.830;24.390;2023-02-18T18:18:08;27.55;;;12.05;;
32242;SDS011;18731;42.830;24.390;2023-02-18T18:20:35;39.72;;;17.13;;
32242;SDS011;18731;42.830;24.390;2023-02-18T18:23:03;59.10;;;26.58;;
32242;SDS011;18731;42.830;24.390;2023-02-18T18:27:59;27.77;;;14.95;;
32242;SDS011;18731;42.830;24.390;2023-02-18T18:30:25;24.95;;;13.02;;
32242;SDS011;18731;42.830;24.390;2023-02-18T18:32:53;26.42;;;12.57;;
32242;SDS011;18731;42.830;24.390;2023-02-18T18:35:40;29.00;;;15.13;;
32242;SDS011;18731;42.830;24.390;2023-02-18T18:38:05;18.95;;;10.27;;
32242;SDS011;18731;42.830;24.390;2023-02-18T18:40:31;17.63;;;9.20;;
32242;SDS011;18731;42.830;24.390;2023-02-18T18:42:58;20.25;;;11.57;;
32242;SDS011;18731;42.830;24.390;2023-02-18T18:45:26;26.98;;;14.00;;
32242;SDS011;18731;42.830;24.390;2023-02-18T18:47:53;27.20;;;13.02;;
32242;SDS011;18731;42.830;24.390;2023-02-18T18:50:19;17.95;;;9.52;;
32242;SDS011;18731;42.830;24.390;2023-02-18T18:52:47;15.43;;;9.35;;
32242;SDS011;18731;42.830;24.390;2023-02-18T18:57:48;17.23;;;6.90;;
32242;SDS011;18731;42.830;24.390;2023-02-18T19:00:14;15.35;;;8.13;;
32242;SDS011;18731;42.830;24.390;2023-02-18T19:02:41;12.13;;;6.28;;
32242;SDS011;18731;42.830;24.390;2023-02-18T19:05:18;12.25;;;5.90;;
32242;SDS011;18731;42.830;24.390;2023-02-18T19:07:52;12.35;;;6.85;;
32242;SDS011;18731;42.830;24.390;2023-02-18T19:10:18;11.02;;;5.85;;
32242;SDS011;18731;42.830;24.390;2023-02-18T19:12:44;11.35;;;6.15;;
32242;SDS011;18731;42.830;24.390;2023-02-18T19:15:15;12.30;;;7.07;;
32242;SDS011;18731;42.830;24.390;2023-02-18T19:17:44;19.55;;;8.55;;
32242;SDS011;18731;42.830;24.390;2023-02-18T19:20:15;14.77;;;7.88;;
32242;SDS011;18731;42.830;24.390;2023-02-18T19:22:43;17.70;;;10.35;;
32242;SDS011;18731;42.830;24.390;2023-02-18T19:25:09;18.60;;;8.10;;
32242;SDS011;18731;42.830;24.390;2023-02-18T19:27:38;13.00;;;7.43;;
32242;SDS011;18731;42.830;24.390;2023-02-18T19:30:05;18.88;;;10.80;;
32242;SDS011;18731;42.830;24.390;2023-02-18T19:32:32;21.75;;;10.18;;
32242;SDS011;18731;42.830;24.390;2023-02-18T19:34:58;13.25;;;7.60;;
32242;SDS011;18731;42.830;24.390;2023-02-18T19:37:24;14.02;;;5.50;;
32242;SDS011;18731;42.830;24.390;2023-02-18T19:39:50;8.18;;;5.60;;
32242;SDS011;18731;42.830;24.390;2023-02-18T19:42:15;10.70;;;5.43;;
32242;SDS011;18731;42.830;24.390;2023-02-18T19:44:41;8.93;;;4.70;;
32242;SDS011;18731;42.830;24.390;2023-02-18T19:47:07;8.40;;;4.22;;
32242;SDS011;18731;42.830;24.390;2023-02-18T19:49:32;12.57;;;5.32;;
32242;SDS011;18731;42.830;24.390;2023-02-18T19:51:58;11.60;;;6.43;;
32242;SDS011;18731;42.830;24.390;2023-02-18T19:54:29;13.13;;;6.53;;
32242;SDS011;18731;42.830;24.390;2023-02-18T19:56:55;23.33;;;8.55;;
32242;SDS011;18731;42.830;24.390;2023-02-18T19:59:21;18.73;;;9.02;;
32242;SDS011;18731;42.830;24.390;2023-02-18T20:01:47;16.38;;;7.25;;
32242;SDS011;18731;42.830;24.390;2023-02-18T20:04:12;12.75;;;6.53;;
32242;SDS011;18731;42.830;24.390;2023-02-18T20:06:38;9.23;;;4.80;;
32242;SDS011;18731;42.830;24.390;2023-02-18T20:09:03;12.77;;;5.22;;
32242;SDS011;18731;42.830;24.390;2023-02-18T20:11:29;26.95;;;13.40;;
32242;SDS011;18731;42.830;24.390;2023-02-18T20:13:55;17.75;;;10.02;;
32242;SDS011;18731;42.830;24.390;2023-02-18T20:16:21;8.77;;;4.60;;
32242;SDS011;18731;42.830;24.390;2023-02-18T20:18:47;26.35;;;11.25;;
32242;SDS011;18731;42.830;24.390;2023-02-18T20:21:13;27.50;;;12.80;;
32242;SDS011;18731;42.830;24.390;2023-02-18T20:23:38;33.00;;;13.07;;
32242;SDS011;18731;42.830;24.390;2023-02-18T20:26:08;32.55;;;14.85;;
32242;SDS011;18731;42.830;24.390;2023-02-18T20:28:34;27.95;;;13.20;;
32242;SDS011;18731;42.830;24.390;2023-02-18T20:31:06;16.13;;;8.20;;
32242;SDS011;18731;42.830;24.390;2023-02-18T20:36:00;22.85;;;9.38;;
32242;SDS011;18731;42.830;24.390;2023-02-18T20:38:29;19.45;;;10.70;;